sensor_id;sensor_type;location;lat;lon;timestamp;temperature;humidity
1055;DHT22;516;51.482;7.120;2023-07-09T00:05:42;22.30;99.90
1055;DHT22;516;51.482;7.120;2023-07-09T00:11:30;22.10;99.90
1055;DHT22;516;51.482;7.120;2023-07-09T00:17:23;22.00;99.90
1055;DHT22;516;51.482;7.120;2023-07-09T00:23:12;22.00;99.90
1055;DHT22;516;51.482;7.120;2023-07-09T00:29:00;21.80;99.90
1055;DHT22;516;51.482;7.120;2023-07-09T00:34:49;21.80;99.90
1055;DHT22;516;51.482;7.120;2023-07-09T00:40:44;21.70;99.90
1055;DHT22;516;51.482;7.120;2023-07-09T00:52:52;21.50;99.90
1055;DHT22;516;51.482;7.120;2023-07-09T01:02:22;21.50;99.90
1055;DHT22;516;51.482;7.120;2023-07-09T01:08:11;21.40;99.90
1055;DHT22;516;51.482;7.120;2023-07-09T01:14:02;21.50;99.90
1055;DHT22;516;51.482;7.120;2023-07-09T01:19:50;21.30;99.90
1055;DHT22;516;51.482;7.120;2023-07-09T01:25:44;21.20;99.90
1055;DHT22;516;51.482;7.120;2023-07-09T01:31:32;21.00;99.90
1055;DHT22;516;51.482;7.120;2023-07-09T01:37:22;20.90;99.90
1055;DHT22;516;51.482;7.120;2023-07-09T01:43:10;20.90;99.90
1055;DHT22;516;51.482;7.120;2023-07-09T01:48:58;20.80;99.90
1055;DHT22;516;51.482;7.120;2023-07-09T01:54:46;20.70;99.90
1055;DHT22;516;51.482;7.120;2023-07-09T01:57:29;20.60;99.90
1055;DHT22;516;51.482;7.120;2023-07-09T02:00:15;20.60;99.90
1055;DHT22;516;51.482;7.120;2023-07-09T02:06:03;20.50;99.90
1055;DHT22;516;51.482;7.120;2023-07-09T02:11:57;20.40;99.90
1055;DHT22;516;51.482;7.120;2023-07-09T02:17:45;20.30;99.90
1055;DHT22;516;51.482;7.120;2023-07-09T02:23:33;20.20;99.90
1055;DHT22;516;51.482;7.120;2023-07-09T02:29:22;20.20;99.90
1055;DHT22;516;51.482;7.120;2023-07-09T02:35:10;20.20;99.90
1055;DHT22;516;51.482;7.120;2023-07-09T02:40:58;20.00;99.90
1055;DHT22;516;51.482;7.120;2023-07-09T02:46:46;20.00;99.90
1055;DHT22;516;51.482;7.120;2023-07-09T02:52:33;20.10;99.90
1055;DHT22;516;51.482;7.120;2023-07-09T03:02:02;20.20;99.90
1055;DHT22;516;51.482;7.120;2023-07-09T03:07:50;20.00;99.90
1055;DHT22;516;51.482;7.120;2023-07-09T03:13:38;19.90;99.90
1055;DHT22;516;51.482;7.120;2023-07-09T03:19:25;19.90;99.90
1055;DHT22;516;51.482;7.120;2023-07-09T03:25:13;19.70;99.90
1055;DHT22;516;51.482;7.120;2023-07-09T03:31:01;19.70;99.90
1055;DHT22;516;51.482;7.120;2023-07-09T03:36:49;19.60;99.90
1055;DHT22;516;51.482;7.120;2023-07-09T03:42:36;19.60;99.90
1055;DHT22;516;51.482;7.120;2023-07-09T03:48:25;19.60;99.90
1055;DHT22;516;51.482;7.120;2023-07-09T03:54:12;19.60;99.90
1055;DHT22;516;51.482;7.120;2023-07-09T03:59:54;19.60;99.90
1055;DHT22;516;51.482;7.120;2023-07-09T04:05:42;19.60;99.90
1055;DHT22;516;51.482;7.120;2023-07-09T04:11:29;19.80;99.90
1055;DHT22;516;51.482;7.120;2023-07-09T04:17:17;19.90;99.90
1055;DHT22;516;51.482;7.120;2023-07-09T04:23:06;20.10;99.90
1055;DHT22;516;51.482;7.120;2023-07-09T04:28:53;20.40;99.90
1055;DHT22;516;51.482;7.120;2023-07-09T04:34:42;20.70;99.90
1055;DHT22;516;51.482;7.120;2023-07-09T04:40:29;20.90;99.90
1055;DHT22;516;51.482;7.120;2023-07-09T04:46:17;21.10;99.90
1055;DHT22;516;51.482;7.120;2023-07-09T04:52:05;21.30;99.90
1055;DHT22;516;51.482;7.120;2023-07-09T05:07:59;22.50;99.90
1055;DHT22;516;51.482;7.120;2023-07-09T05:13:47;23.00;99.90
1055;DHT22;516;51.482;7.120;2023-07-09T05:19:35;23.30;99.90
1055;DHT22;516;51.482;7.120;2023-07-09T05:25:22;23.50;99.90
1055;DHT22;516;51.482;7.120;2023-07-09T05:31:10;24.30;99.90
1055;DHT22;516;51.482;7.120;2023-07-09T05:36:39;24.80;99.90
1055;DHT22;516;51.482;7.120;2023-07-09T05:42:27;25.00;99.90
1055;DHT22;516;51.482;7.120;2023-07-09T05:48:15;25.40;99.90
1055;DHT22;516;51.482;7.120;2023-07-09T05:54:03;26.00;99.90
1055;DHT22;516;51.482;7.120;2023-07-09T06:03:13;27.20;99.90
1055;DHT22;516;51.482;7.120;2023-07-09T06:09:01;27.10;99.90
1055;DHT22;516;51.482;7.120;2023-07-09T06:14:49;27.40;99.90
1055;DHT22;516;51.482;7.120;2023-07-09T06:20:38;27.50;99.90
1055;DHT22;516;51.482;7.120;2023-07-09T06:26:26;27.60;99.90
1055;DHT22;516;51.482;7.120;2023-07-09T06:32:14;27.90;99.00
1055;DHT22;516;51.482;7.120;2023-07-09T06:38:02;28.50;91.90
1055;DHT22;516;51.482;7.120;2023-07-09T06:43:50;28.10;95.80
1055;DHT22;516;51.482;7.120;2023-07-09T06:49:38;28.90;94.00
1055;DHT22;516;51.482;7.120;2023-07-09T06:55:26;29.60;80.90
1055;DHT22;516;51.482;7.120;2023-07-09T07:01:12;29.70;71.60
1055;DHT22;516;51.482;7.120;2023-07-09T07:07:00;29.90;67.50
1055;DHT22;516;51.482;7.120;2023-07-09T07:12:49;30.40;53.00
1055;DHT22;516;51.482;7.120;2023-07-09T07:18:37;30.80;47.90
1055;DHT22;516;51.482;7.120;2023-07-09T07:24:25;30.50;51.70
1055;DHT22;516;51.482;7.120;2023-07-09T07:30:13;30.80;50.60
1055;DHT22;516;51.482;7.120;2023-07-09T07:36:04;32.80;35.10
1055;DHT22;516;51.482;7.120;2023-07-09T07:41:52;30.70;39.40
1055;DHT22;516;51.482;7.120;2023-07-09T07:47:39;31.30;36.30
1055;DHT22;516;51.482;7.120;2023-07-09T07:53:29;31.50;30.20
1055;DHT22;516;51.482;7.120;2023-07-09T08:03:14;33.10;22.80
1055;DHT22;516;51.482;7.120;2023-07-09T08:09:02;32.40;24.00
1055;DHT22;516;51.482;7.120;2023-07-09T08:14:50;32.40;22.20
1055;DHT22;516;51.482;7.120;2023-07-09T08:20:38;33.40;17.00
1055;DHT22;516;51.482;7.120;2023-07-09T08:26:30;33.90;14.70
1055;DHT22;516;51.482;7.120;2023-07-09T08:32:18;34.60;10.80
1055;DHT22;516;51.482;7.120;2023-07-09T08:38:06;33.90;11.30
1055;DHT22;516;51.482;7.120;2023-07-09T08:44:04;35.90;3.70
1055;DHT22;516;51.482;7.120;2023-07-09T08:56:46;35.10;1.00
1055;DHT22;516;51.482;7.120;2023-07-09T09:06:02;34.80;5.70
1055;DHT22;516;51.482;7.120;2023-07-09T09:18:39;34.80;1.00
1055;DHT22;516;51.482;7.120;2023-07-09T09:25:39;34.30;1.00
1055;DHT22;516;51.482;7.120;2023-07-09T09:31:27;35.20;1.00
1055;DHT22;516;51.482;7.120;2023-07-09T09:43:54;36.00;1.00
1055;DHT22;516;51.482;7.120;2023-07-09T09:49:43;36.10;1.00
1055;DHT22;516;51.482;7.120;2023-07-09T09:55:31;37.10;1.00
1055;DHT22;516;51.482;7.120;2023-07-09T10:01:22;35.80;1.00
1055;DHT22;516;51.482;7.120;2023-07-09T10:13:52;36.10;1.00
1055;DHT22;516;51.482;7.120;2023-07-09T10:19:59;35.40;1.00
1055;DHT22;516;51.482;7.120;2023-07-09T10:26:19;36.10;1.00
1055;DHT22;516;51.482;7.120;2023-07-09T10:39:25;37.00;1.00
1055;DHT22;516;51.482;7.120;2023-07-09T10:45:22;36.70;1.00
1055;DHT22;516;51.482;7.120;2023-07-09T10:57:28;37.40;1.00
1055;DHT22;516;51.482;7.120;2023-07-09T11:06:45;37.70;1.00
1055;DHT22;516;51.482;7.120;2023-07-09T11:12:40;37.80;1.00
1055;DHT22;516;51.482;7.120;2023-07-09T11:18:58;38.30;1.00
1055;DHT22;516;51.482;7.120;2023-07-09T11:24:51;36.80;1.00
1055;DHT22;516;51.482;7.120;2023-07-09T11:30:54;36.80;1.00
1055;DHT22;516;51.482;7.120;2023-07-09T11:36:28;38.30;1.00
1055;DHT22;516;51.482;7.120;2023-07-09T11:42:31;38.10;1.00
1055;DHT22;516;51.482;7.120;2023-07-09T11:48:26;37.80;1.00
1055;DHT22;516;51.482;7.120;2023-07-09T11:54:15;37.90;1.00
1055;DHT22;516;51.482;7.120;2023-07-09T12:00:03;37.70;1.00
1055;DHT22;516;51.482;7.120;2023-07-09T12:09:18;38.60;1.00
1055;DHT22;516;51.482;7.120;2023-07-09T12:21:43;37.70;1.00
1055;DHT22;516;51.482;7.120;2023-07-09T12:27:34;37.90;1.00
1055;DHT22;516;51.482;7.120;2023-07-09T12:33:26;37.40;1.00
1055;DHT22;516;51.482;7.120;2023-07-09T12:45:52;37.90;1.00
1055;DHT22;516;51.482;7.120;2023-07-09T12:51:42;38.00;1.00
1055;DHT22;516;51.482;7.120;2023-07-09T12:57:30;37.20;1.00
1055;DHT22;516;51.482;7.120;2023-07-09T13:03:27;37.50;1.00
1055;DHT22;516;51.482;7.120;2023-07-09T13:09:33;36.60;1.00
1055;DHT22;516;51.482;7.120;2023-07-09T13:22:18;36.40;1.00
1055;DHT22;516;51.482;7.120;2023-07-09T13:34:53;36.20;1.00
1055;DHT22;516;51.482;7.120;2023-07-09T13:40:41;35.60;1.00
1055;DHT22;516;51.482;7.120;2023-07-09T13:46:29;35.30;1.00
1055;DHT22;516;51.482;7.120;2023-07-09T13:52:20;34.80;1.00
1055;DHT22;516;51.482;7.120;2023-07-09T13:58:11;34.50;1.00
1055;DHT22;516;51.482;7.120;2023-07-09T14:03:59;33.90;1.00
1055;DHT22;516;51.482;7.120;2023-07-09T14:13:14;33.60;1.00
1055;DHT22;516;51.482;7.120;2023-07-09T14:19:02;33.10;1.00
1055;DHT22;516;51.482;7.120;2023-07-09T14:24:50;32.30;1.80
1055;DHT22;516;51.482;7.120;2023-07-09T14:30:38;31.90;16.70
1055;DHT22;516;51.482;7.120;2023-07-09T14:36:28;30.50;77.30
1055;DHT22;516;51.482;7.120;2023-07-09T14:42:16;25.40;99.90
1055;DHT22;516;51.482;7.120;2023-07-09T14:48:15;24.20;99.90
1055;DHT22;516;51.482;7.120;2023-07-09T14:54:17;23.70;99.90
1055;DHT22;516;51.482;7.120;2023-07-09T15:00:24;23.60;99.90
1055;DHT22;516;51.482;7.120;2023-07-09T15:06:13;22.20;99.90
1055;DHT22;516;51.482;7.120;2023-07-09T15:15:30;21.10;99.90
1055;DHT22;516;51.482;7.120;2023-07-09T15:21:19;21.50;99.90
1055;DHT22;516;51.482;7.120;2023-07-09T15:27:08;20.40;99.90
1055;DHT22;516;51.482;7.120;2023-07-09T15:32:59;20.50;99.90
1055;DHT22;516;51.482;7.120;2023-07-09T15:38:47;20.50;99.90
1055;DHT22;516;51.482;7.120;2023-07-09T15:44:35;20.50;99.90
1055;DHT22;516;51.482;7.120;2023-07-09T15:50:27;20.60;99.90
1055;DHT22;516;51.482;7.120;2023-07-09T15:56:23;20.90;99.90
1055;DHT22;516;51.482;7.120;2023-07-09T16:02:14;20.90;99.90
1055;DHT22;516;51.482;7.120;2023-07-09T16:08:02;20.80;99.90
1055;DHT22;516;51.482;7.120;2023-07-09T16:10:47;20.70;99.90
1055;DHT22;516;51.482;7.120;2023-07-09T16:13:22;20.80;99.90
1055;DHT22;516;51.482;7.120;2023-07-09T16:19:12;20.80;99.90
1055;DHT22;516;51.482;7.120;2023-07-09T16:25:00;20.90;99.90
1055;DHT22;516;51.482;7.120;2023-07-09T16:30:48;20.90;99.90
1055;DHT22;516;51.482;7.120;2023-07-09T16:36:38;21.00;99.90
1055;DHT22;516;51.482;7.120;2023-07-09T16:42:28;21.20;99.90
1055;DHT22;516;51.482;7.120;2023-07-09T16:48:23;21.40;99.90
1055;DHT22;516;51.482;7.120;2023-07-09T16:54:12;21.80;99.90
1055;DHT22;516;51.482;7.120;2023-07-09T17:00:24;21.70;99.90
1055;DHT22;516;51.482;7.120;2023-07-09T17:06:12;22.10;99.90
1055;DHT22;516;51.482;7.120;2023-07-09T17:15:25;22.30;99.90
1055;DHT22;516;51.482;7.120;2023-07-09T17:21:16;22.10;99.90
1055;DHT22;516;51.482;7.120;2023-07-09T17:27:07;22.10;99.90
1055;DHT22;516;51.482;7.120;2023-07-09T17:32:58;22.10;99.90
1055;DHT22;516;51.482;7.120;2023-07-09T17:38:34;22.00;99.90
1055;DHT22;516;51.482;7.120;2023-07-09T17:44:23;22.50;99.90
1055;DHT22;516;51.482;7.120;2023-07-09T17:50:20;22.60;99.90
1055;DHT22;516;51.482;7.120;2023-07-09T17:56:27;22.70;99.90
1055;DHT22;516;51.482;7.120;2023-07-09T18:02:28;22.80;99.90
1055;DHT22;516;51.482;7.120;2023-07-09T18:08:18;22.70;99.90
1055;DHT22;516;51.482;7.120;2023-07-09T18:10:51;22.80;99.90
1055;DHT22;516;51.482;7.120;2023-07-09T18:13:21;22.90;99.90
1055;DHT22;516;51.482;7.120;2023-07-09T18:25:45;22.70;99.90
1055;DHT22;516;51.482;7.120;2023-07-09T18:31:34;22.80;99.90
1055;DHT22;516;51.482;7.120;2023-07-09T18:37:22;22.80;99.90
1055;DHT22;516;51.482;7.120;2023-07-09T18:43:16;22.80;99.90
1055;DHT22;516;51.482;7.120;2023-07-09T18:49:06;22.70;99.90
1055;DHT22;516;51.482;7.120;2023-07-09T18:54:54;22.70;99.90
1055;DHT22;516;51.482;7.120;2023-07-09T19:00:42;22.70;99.90
1055;DHT22;516;51.482;7.120;2023-07-09T19:06:30;22.50;99.90
1055;DHT22;516;51.482;7.120;2023-07-09T19:15:40;22.40;99.90
1055;DHT22;516;51.482;7.120;2023-07-09T19:21:30;22.20;99.90
1055;DHT22;516;51.482;7.120;2023-07-09T19:27:20;22.10;99.90
1055;DHT22;516;51.482;7.120;2023-07-09T19:39:37;22.10;99.90
1055;DHT22;516;51.482;7.120;2023-07-09T19:45:36;22.00;99.90
1055;DHT22;516;51.482;7.120;2023-07-09T19:51:24;21.90;99.90
1055;DHT22;516;51.482;7.120;2023-07-09T19:57:13;21.90;99.90
1055;DHT22;516;51.482;7.120;2023-07-09T20:03:02;21.90;99.90
1055;DHT22;516;51.482;7.120;2023-07-09T20:08:50;21.80;99.90
1055;DHT22;516;51.482;7.120;2023-07-09T20:18:01;21.50;99.90
1055;DHT22;516;51.482;7.120;2023-07-09T20:23:49;21.60;99.90
1055;DHT22;516;51.482;7.120;2023-07-09T20:29:38;21.50;99.90
1055;DHT22;516;51.482;7.120;2023-07-09T20:35:26;21.50;99.90
1055;DHT22;516;51.482;7.120;2023-07-09T20:41:19;21.50;99.90
1055;DHT22;516;51.482;7.120;2023-07-09T20:47:19;21.40;99.90
1055;DHT22;516;51.482;7.120;2023-07-09T20:53:11;21.30;99.90
1055;DHT22;516;51.482;7.120;2023-07-09T20:58:59;21.30;99.90
1055;DHT22;516;51.482;7.120;2023-07-09T21:04:47;21.20;99.90
1055;DHT22;516;51.482;7.120;2023-07-09T21:10:35;21.10;99.90
1055;DHT22;516;51.482;7.120;2023-07-09T21:13:23;21.10;99.90
1055;DHT22;516;51.482;7.120;2023-07-09T21:22:24;21.10;99.90
1055;DHT22;516;51.482;7.120;2023-07-09T21:28:13;20.90;99.90
1055;DHT22;516;51.482;7.120;2023-07-09T21:34:01;20.90;99.90
1055;DHT22;516;51.482;7.120;2023-07-09T21:39:49;20.80;99.90
1055;DHT22;516;51.482;7.120;2023-07-09T21:45:40;20.70;99.90
1055;DHT22;516;51.482;7.120;2023-07-09T21:51:29;20.60;99.90
1055;DHT22;516;51.482;7.120;2023-07-09T21:57:18;20.50;99.90
1055;DHT22;516;51.482;7.120;2023-07-09T22:03:11;20.40;99.90
1055;DHT22;516;51.482;7.120;2023-07-09T22:08:59;20.40;99.90
1055;DHT22;516;51.482;7.120;2023-07-09T22:18:17;20.40;99.90
1055;DHT22;516;51.482;7.120;2023-07-09T22:24:10;20.20;99.90
1055;DHT22;516;51.482;7.120;2023-07-09T22:29:58;20.20;99.90
1055;DHT22;516;51.482;7.120;2023-07-09T22:35:46;20.20;99.90
1055;DHT22;516;51.482;7.120;2023-07-09T22:41:34;20.20;99.90
1055;DHT22;516;51.482;7.120;2023-07-09T22:47:22;20.10;99.90
1055;DHT22;516;51.482;7.120;2023-07-09T22:53:13;20.10;99.90
1055;DHT22;516;51.482;7.120;2023-07-09T22:59:01;20.10;99.90
1055;DHT22;516;51.482;7.120;2023-07-09T23:04:49;20.20;99.90
1055;DHT22;516;51.482;7.120;2023-07-09T23:10:37;20.20;99.90
1055;DHT22;516;51.482;7.120;2023-07-09T23:16:42;20.10;99.90
1055;DHT22;516;51.482;7.120;2023-07-09T23:22:13;20.00;99.90
1055;DHT22;516;51.482;7.120;2023-07-09T23:28:01;19.90;99.90
1055;DHT22;516;51.482;7.120;2023-07-09T23:33:49;19.80;99.90
1055;DHT22;516;51.482;7.120;2023-07-09T23:39:36;19.90;99.90
1055;DHT22;516;51.482;7.120;2023-07-09T23:45:24;20.00;99.90
1055;DHT22;516;51.482;7.120;2023-07-09T23:51:13;19.80;99.90
1055;DHT22;516;51.482;7.120;2023-07-09T23:57:01;19.90;99.90
